createdAt,value
2019-03-01T00:00:26.073Z,1009.60
2019-03-01T00:01:26.124Z,1009.55
2019-03-01T00:02:26.185Z,1009.60
2019-03-01T00:03:26.250Z,1009.61
2019-03-01T00:04:26.311Z,1009.63
2019-03-01T00:05:26.480Z,1009.59
2019-03-01T00:06:26.433Z,1009.59
2019-03-01T00:07:26.497Z,1009.55
2019-03-01T00:08:26.557Z,1009.55
2019-03-01T00:09:26.627Z,1009.59
2019-03-01T00:10:26.868Z,1009.56
2019-03-01T00:11:26.749Z,1009.58
2019-03-01T00:12:26.805Z,1009.57
2019-03-01T00:13:26.872Z,1009.58
2019-03-01T00:14:26.929Z,1009.55
2019-03-01T00:15:26.997Z,1009.58
2019-03-01T00:16:27.065Z,1009.54
2019-03-01T00:17:27.113Z,1009.56
2019-03-01T00:18:27.177Z,1009.55
2019-03-01T00:19:27.241Z,1009.56
2019-03-01T00:20:27.303Z,1009.52
2019-03-01T00:21:27.467Z,1009.53
2019-03-01T00:22:27.426Z,1009.55
2019-03-01T00:23:27.486Z,1009.52
2019-03-01T00:24:27.549Z,1009.47
2019-03-01T00:25:27.612Z,1009.49
2019-03-01T00:26:27.682Z,1009.47
2019-03-01T00:27:27.742Z,1009.47
2019-03-01T00:28:27.798Z,1009.50
2019-03-01T00:29:27.859Z,1009.47
2019-03-01T00:30:27.922Z,1009.46
2019-03-01T00:31:28.483Z,1009.47
2019-03-01T00:32:28.050Z,1009.45
2019-03-01T00:33:28.112Z,1009.45
2019-03-01T00:34:28.170Z,1009.43
2019-03-01T00:35:28.233Z,1009.42
2019-03-01T00:36:28.481Z,1009.42
2019-03-01T00:37:28.355Z,1009.40
2019-03-01T00:38:28.419Z,1009.39
2019-03-01T00:39:28.478Z,1009.36
2019-03-01T00:40:28.545Z,1009.34
2019-03-01T00:41:28.611Z,1009.34
2019-03-01T00:42:28.674Z,1009.36
2019-03-01T00:43:28.727Z,1009.34
2019-03-01T00:44:28.940Z,1009.34
2019-03-01T00:45:28.851Z,1009.29
2019-03-01T00:46:28.932Z,1009.28
2019-03-01T00:47:28.983Z,1009.30
2019-03-01T00:48:29.039Z,1009.28
2019-03-01T00:49:29.100Z,1009.26
2019-03-01T00:50:29.163Z,1009.24
2019-03-01T00:51:29.246Z,1009.27
2019-03-01T00:52:29.287Z,1009.28
2019-03-01T00:53:29.347Z,1009.23
2019-03-01T00:54:29.412Z,1009.21
2019-03-01T00:55:29.472Z,1009.22
2019-03-01T00:56:29.543Z,1009.21
2019-03-01T00:57:29.604Z,1009.20
2019-03-01T00:58:29.663Z,1009.20
2019-03-01T00:59:29.727Z,1009.18
2019-03-01T01:00:29.775Z,1009.16
2019-03-01T01:01:29.865Z,1009.19
2019-03-01T01:02:29.912Z,1009.15
2019-03-01T01:03:29.972Z,1009.15
2019-03-01T01:04:30.030Z,1009.13
2019-03-01T01:05:30.093Z,1009.13
2019-03-01T01:06:30.197Z,1009.09
2019-03-01T01:07:30.216Z,1009.08
2019-03-01T01:08:30.361Z,1009.04
2019-03-01T01:09:30.340Z,1009.01
2019-03-01T01:10:30.404Z,1009.02
2019-03-01T01:11:30.474Z,1008.98
2019-03-01T01:12:30.532Z,1009.00
2019-03-01T01:13:30.589Z,1008.98
2019-03-01T01:14:30.652Z,1008.98
2019-03-01T01:15:30.712Z,1008.91
2019-03-01T01:16:30.785Z,1008.94
2019-03-01T01:17:30.844Z,1008.92
2019-03-01T01:18:30.897Z,1008.94
2019-03-01T01:19:30.961Z,1008.92
2019-03-01T01:20:31.022Z,1008.91
2019-03-01T01:21:31.196Z,1008.90
2019-03-01T01:22:31.145Z,1008.90
2019-03-01T01:23:31.208Z,1008.88
2019-03-01T01:24:31.268Z,1008.87
2019-03-01T01:25:31.350Z,1008.90
2019-03-01T01:26:31.401Z,1008.83
2019-03-01T01:27:31.465Z,1008.86
2019-03-01T01:28:31.517Z,1008.87
2019-03-01T01:29:31.581Z,1008.81
2019-03-01T01:30:31.642Z,1008.84
2019-03-01T01:31:31.709Z,1008.78
2019-03-01T01:32:31.777Z,1008.79
2019-03-01T01:33:31.830Z,1008.76
2019-03-01T01:34:31.892Z,1008.77
2019-03-01T01:35:31.956Z,1008.76
2019-03-01T01:36:32.021Z,1008.73
2019-03-01T01:37:32.081Z,1008.74
2019-03-01T01:38:32.137Z,1008.76
2019-03-01T01:39:32.201Z,1008.75
2019-03-01T01:40:32.262Z,1008.73
2019-03-01T01:41:32.333Z,1008.71
2019-03-01T01:42:32.398Z,1008.76
2019-03-01T01:43:32.450Z,1008.71
2019-03-01T01:44:32.511Z,1008.68
2019-03-01T01:45:32.575Z,1008.69
2019-03-01T01:46:32.642Z,1008.67
2019-03-01T01:47:32.702Z,1008.66
2019-03-01T01:48:32.758Z,1008.64
2019-03-01T01:49:32.822Z,1008.65
2019-03-01T01:50:32.883Z,1008.57
2019-03-01T01:51:32.950Z,1008.60
2019-03-01T01:52:33.014Z,1008.59
2019-03-01T01:53:33.071Z,1008.62
2019-03-01T01:54:33.134Z,1008.60
2019-03-01T01:55:33.200Z,1008.61
2019-03-01T01:56:33.272Z,1008.52
2019-03-01T01:57:33.318Z,1008.52
2019-03-01T01:58:33.378Z,1008.53
2019-03-01T01:59:33.442Z,1008.54
2019-03-01T02:00:33.502Z,1008.47
2019-03-01T02:01:33.571Z,1008.49
2019-03-01T02:02:33.634Z,1008.49
2019-03-01T02:03:33.689Z,1008.54
2019-03-01T02:04:33.751Z,1008.53
2019-03-01T02:05:33.815Z,1008.47
2019-03-01T02:06:33.883Z,1008.49
2019-03-01T02:07:33.943Z,1008.47
2019-03-01T02:08:33.998Z,1008.50
2019-03-01T02:09:34.063Z,1008.42
2019-03-01T02:10:34.127Z,1008.47
2019-03-01T02:11:34.183Z,1008.45
2019-03-01T02:12:34.271Z,1008.42
2019-03-01T02:13:34.311Z,1008.42
2019-03-01T02:14:34.375Z,1008.46
2019-03-01T02:15:34.431Z,1008.43
2019-03-01T02:16:34.495Z,1008.40
2019-03-01T02:17:34.564Z,1008.41
2019-03-01T02:18:34.627Z,1008.42
2019-03-01T02:19:34.679Z,1008.37
2019-03-01T02:20:34.739Z,1008.45
2019-03-01T02:21:34.808Z,1008.38
2019-03-01T02:22:34.875Z,1008.41
2019-03-01T02:23:34.948Z,1008.36
2019-03-01T02:24:34.992Z,1008.34
2019-03-01T02:25:35.052Z,1008.34
2019-03-01T02:26:35.112Z,1008.27
2019-03-01T02:27:35.196Z,1008.25
2019-03-01T02:28:35.241Z,1008.26
2019-03-01T02:29:35.300Z,1008.29
2019-03-01T02:30:35.365Z,1008.25
2019-03-01T02:31:35.428Z,1008.25
2019-03-01T02:32:35.498Z,1008.25
2019-03-01T02:33:35.564Z,1008.23
2019-03-01T02:34:35.612Z,1008.19
2019-03-01T02:35:35.673Z,1008.20
2019-03-01T02:36:35.750Z,1008.17
2019-03-01T02:37:35.806Z,1008.21
2019-03-01T02:38:35.875Z,1008.21
2019-03-01T02:39:35.928Z,1008.15
2019-03-01T02:40:35.985Z,1008.20
2019-03-01T02:41:36.056Z,1008.17
2019-03-01T02:42:36.469Z,1008.16
2019-03-01T02:43:36.169Z,1008.21
2019-03-01T02:44:36.232Z,1008.17
2019-03-01T02:45:36.301Z,1008.16
2019-03-01T02:46:36.358Z,1008.14
2019-03-01T02:47:36.418Z,1008.11
2019-03-01T02:48:36.493Z,1008.10
2019-03-01T02:49:36.542Z,1008.10
2019-03-01T02:50:36.606Z,1008.08
2019-03-01T02:51:36.665Z,1008.07
2019-03-01T02:52:36.730Z,1008.06
2019-03-01T02:53:36.797Z,1008.04
2019-03-01T02:54:36.857Z,1008.07
2019-03-01T02:55:36.914Z,1008.07
2019-03-01T02:56:36.974Z,1008.03
2019-03-01T02:57:37.042Z,1008.02
2019-03-01T02:58:37.282Z,1008.02
2019-03-01T02:59:37.162Z,1008.03
2019-03-01T03:00:37.221Z,1008.04
2019-03-01T03:01:37.285Z,1008.01
2019-03-01T03:02:37.345Z,1008.05
2019-03-01T03:03:37.415Z,1007.99
2019-03-01T03:04:37.477Z,1008.06
2019-03-01T03:05:37.538Z,1008.05
2019-03-01T03:06:37.598Z,1008.00
2019-03-01T03:07:37.659Z,1007.97
2019-03-01T03:08:37.727Z,1007.97
2019-03-01T03:09:37.786Z,1007.99
2019-03-01T03:10:37.841Z,1007.91
2019-03-01T03:11:37.903Z,1007.98
2019-03-01T03:12:37.988Z,1007.95
2019-03-01T03:13:38.036Z,1007.92
2019-03-01T03:14:38.104Z,1007.88
2019-03-01T03:15:38.151Z,1007.89
2019-03-01T03:16:38.265Z,1007.87
2019-03-01T03:17:38.275Z,1007.89
2019-03-01T03:18:38.382Z,1007.88
2019-03-01T03:19:38.413Z,1007.88
2019-03-01T03:20:38.463Z,1007.87
2019-03-01T03:21:38.530Z,1007.81
2019-03-01T03:22:38.595Z,1007.86
2019-03-01T03:23:38.655Z,1007.85
2019-03-01T03:24:38.715Z,1007.87
2019-03-01T03:25:38.770Z,1007.87
2019-03-01T03:26:38.841Z,1007.83
2019-03-01T03:27:38.895Z,1007.86
2019-03-01T03:28:38.966Z,1007.83
2019-03-01T03:29:39.036Z,1007.79
2019-03-01T03:30:39.079Z,1007.81
2019-03-01T03:31:39.148Z,1007.77
2019-03-01T03:32:39.204Z,1007.73
2019-03-01T03:33:39.335Z,1007.76
2019-03-01T03:34:39.336Z,1007.77
2019-03-01T03:35:39.397Z,1007.72
2019-03-01T03:36:39.452Z,1007.73
2019-03-01T03:37:39.520Z,1007.73
2019-03-01T03:38:39.583Z,1007.73
2019-03-01T03:39:39.644Z,1007.74
2019-03-01T03:40:39.701Z,1007.75
2019-03-01T03:41:39.767Z,1007.75
2019-03-01T03:42:39.824Z,1007.75
2019-03-01T03:43:39.892Z,1007.76
2019-03-01T03:44:39.956Z,1007.75
2019-03-01T03:45:40.016Z,1007.71
2019-03-01T03:46:40.073Z,1007.75
2019-03-01T03:47:40.137Z,1007.77
2019-03-01T03:48:40.539Z,1007.73
2019-03-01T03:49:40.265Z,1007.74
2019-03-01T03:50:40.320Z,1007.71
2019-03-01T03:51:40.389Z,1007.74
2019-03-01T03:52:40.444Z,1007.73
2019-03-01T03:53:40.510Z,1007.75
2019-03-01T03:54:40.606Z,1007.76
2019-03-01T03:55:40.634Z,1007.79
2019-03-01T03:56:40.696Z,1007.79
2019-03-01T03:57:40.765Z,1007.77
2019-03-01T03:58:40.825Z,1007.75
2019-03-01T03:59:40.885Z,1007.77
2019-03-01T04:00:40.949Z,1007.74
2019-03-01T04:01:41.004Z,1007.79
2019-03-01T04:02:41.065Z,1007.75
2019-03-01T04:03:41.125Z,1007.74
2019-03-01T04:04:41.205Z,1007.75
2019-03-01T04:05:41.250Z,1007.77
2019-03-01T04:06:41.312Z,1007.73
2019-03-01T04:07:41.374Z,1007.77
2019-03-01T04:08:41.440Z,1007.77
2019-03-01T04:09:41.506Z,1007.76
2019-03-01T04:10:41.569Z,1007.77
2019-03-01T04:11:41.622Z,1007.76
2019-03-01T04:12:41.691Z,1007.78
2019-03-01T04:13:41.746Z,1007.78
2019-03-01T04:14:41.818Z,1007.76
2019-03-01T04:15:41.878Z,1007.82
2019-03-01T04:16:41.936Z,1007.73
2019-03-01T04:17:41.994Z,1007.75
2019-03-01T04:18:42.063Z,1007.83
2019-03-01T04:19:42.148Z,1007.78
2019-03-01T04:20:42.182Z,1007.80
2019-03-01T04:21:42.241Z,1007.78
2019-03-01T04:22:42.310Z,1007.79
2019-03-01T04:23:42.366Z,1007.83
2019-03-01T04:24:42.438Z,1007.81
2019-03-01T04:25:42.498Z,1007.81
2019-03-01T04:26:42.558Z,1007.77
2019-03-01T04:27:42.646Z,1007.78
2019-03-01T04:28:42.678Z,1007.77
2019-03-01T04:29:42.747Z,1007.75
2019-03-01T04:30:42.810Z,1007.77
2019-03-01T04:31:42.863Z,1007.71
2019-03-01T04:32:42.929Z,1007.75
2019-03-01T04:33:42.987Z,1007.72
2019-03-01T04:34:43.059Z,1007.72
2019-03-01T04:35:43.118Z,1007.69
2019-03-01T04:36:43.175Z,1007.72
2019-03-01T04:37:43.238Z,1007.68
2019-03-01T04:38:43.298Z,1007.68
2019-03-01T04:39:43.379Z,1007.68
2019-03-01T04:40:43.428Z,1007.63
2019-03-01T04:41:43.483Z,1007.63
2019-03-01T04:42:43.552Z,1007.64
2019-03-01T04:43:43.607Z,1007.60
2019-03-01T04:44:43.674Z,1007.59
2019-03-01T04:45:43.743Z,1007.60
2019-03-01T04:46:43.803Z,1007.59
2019-03-01T04:47:43.859Z,1007.61
2019-03-01T04:48:43.915Z,1007.60
2019-03-01T04:49:43.979Z,1007.61
2019-03-01T04:50:44.072Z,1007.59
2019-03-01T04:51:44.103Z,1007.60
2019-03-01T04:52:44.165Z,1007.59
2019-03-01T04:53:44.227Z,1007.58
2019-03-01T04:54:44.287Z,1007.59
2019-03-01T04:55:44.440Z,1007.59
2019-03-01T04:56:44.414Z,1007.60
2019-03-01T04:57:44.476Z,1007.64
2019-03-01T04:58:44.536Z,1007.55
2019-03-01T04:59:44.596Z,1007.55
2019-03-01T05:00:44.668Z,1007.56
2019-03-01T05:01:44.728Z,1007.58
2019-03-01T05:02:44.780Z,1007.57
2019-03-01T05:03:44.846Z,1007.54
2019-03-01T05:04:44.908Z,1007.55
2019-03-01T05:05:44.976Z,1007.57
2019-03-01T05:06:45.041Z,1007.53
2019-03-01T05:07:45.093Z,1007.53
2019-03-01T05:08:45.156Z,1007.53
2019-03-01T05:09:45.220Z,1007.56
2019-03-01T05:10:45.373Z,1007.52
2019-03-01T05:11:45.341Z,1007.55
2019-03-01T05:12:45.410Z,1007.58
2019-03-01T05:13:45.469Z,1007.58
2019-03-01T05:14:45.528Z,1007.63
2019-03-01T05:15:45.596Z,1007.60
2019-03-01T05:16:45.660Z,1007.56
2019-03-01T05:17:45.721Z,1007.61
2019-03-01T05:18:45.776Z,1007.60
2019-03-01T05:19:45.836Z,1007.62
2019-03-01T05:20:45.909Z,1007.61
2019-03-01T05:21:45.973Z,1007.59
2019-03-01T05:22:46.037Z,1007.65
2019-03-01T05:23:46.085Z,1007.61
2019-03-01T05:24:46.149Z,1007.64
2019-03-01T05:25:47.652Z,1007.69
2019-03-01T05:26:46.273Z,1007.68
2019-03-01T05:27:46.337Z,1007.68
2019-03-01T05:28:46.397Z,1007.71
2019-03-01T05:29:46.462Z,1007.67
2019-03-01T05:30:46.529Z,1007.72
2019-03-01T05:31:46.589Z,1007.72
2019-03-01T05:32:46.645Z,1007.72
2019-03-01T05:33:46.709Z,1007.77
2019-03-01T05:34:46.769Z,1007.75
2019-03-01T05:35:46.837Z,1007.74
2019-03-01T05:36:46.943Z,1007.77
2019-03-01T05:37:46.957Z,1007.79
2019-03-01T05:38:47.029Z,1007.80
2019-03-01T05:39:47.081Z,1007.81
2019-03-01T05:40:47.142Z,1007.80
2019-03-01T05:41:47.550Z,1007.88
2019-03-01T05:42:47.268Z,1007.87
2019-03-01T05:43:47.326Z,1007.89
2019-03-01T05:44:47.390Z,1007.88
2019-03-01T05:45:47.454Z,1007.87
2019-03-01T05:46:47.514Z,1007.87
2019-03-01T05:47:47.618Z,1007.87
2019-03-01T05:48:47.642Z,1007.91
2019-03-01T05:49:47.701Z,1007.87
2019-03-01T05:50:47.762Z,1007.90
2019-03-01T05:51:47.826Z,1007.92
2019-03-01T05:52:47.894Z,1007.89
2019-03-01T05:53:47.962Z,1007.95
2019-03-01T05:54:48.011Z,1007.97
2019-03-01T05:55:48.075Z,1007.94
2019-03-01T05:56:48.134Z,1007.92
2019-03-01T05:57:48.219Z,1007.97
2019-03-01T05:58:48.259Z,1007.95
2019-03-01T05:59:48.323Z,1007.98
2019-03-01T06:00:48.387Z,1007.97
2019-03-01T06:01:48.450Z,1007.99
2019-03-01T06:02:48.515Z,1008.00
2019-03-01T06:03:48.579Z,1007.99
2019-03-01T06:04:48.631Z,1007.99
2019-03-01T06:05:48.695Z,1008.00
2019-03-01T06:06:48.759Z,1008.03
2019-03-01T06:07:48.829Z,1008.03
2019-03-01T06:08:48.887Z,1008.04
2019-03-01T06:09:48.943Z,1008.06
2019-03-01T06:10:50.705Z,1008.02
2019-03-01T06:11:49.067Z,1008.06
2019-03-01T06:12:49.159Z,1008.05
2019-03-01T06:13:49.192Z,1008.04
2019-03-01T06:14:49.255Z,1008.00
2019-03-01T06:15:49.317Z,1008.05
2019-03-01T06:16:49.381Z,1008.02
2019-03-01T06:17:49.447Z,1008.05
2019-03-01T06:18:49.511Z,1008.03
2019-03-01T06:19:49.564Z,1008.05
2019-03-01T06:20:49.628Z,1008.04
2019-03-01T06:21:49.690Z,1008.01
2019-03-01T06:22:49.759Z,1008.07
2019-03-01T06:23:49.821Z,1008.08
2019-03-01T06:24:49.877Z,1008.07
2019-03-01T06:25:49.936Z,1008.09
2019-03-01T06:26:50.004Z,1008.12
2019-03-01T06:27:50.068Z,1008.11
2019-03-01T06:28:50.132Z,1008.12
2019-03-01T06:29:50.190Z,1008.19
2019-03-01T06:30:52.096Z,1008.13
2019-03-01T06:31:50.313Z,1008.14
2019-03-01T06:32:50.380Z,1008.20
2019-03-01T06:33:50.444Z,1008.15
2019-03-01T06:34:50.496Z,1008.17
2019-03-01T06:35:50.561Z,1008.20
2019-03-01T06:36:50.620Z,1008.19
2019-03-01T06:37:50.695Z,1008.22
2019-03-01T06:38:50.753Z,1008.20
2019-03-01T06:39:50.809Z,1008.25
2019-03-01T06:40:50.869Z,1008.23
2019-03-01T06:41:50.933Z,1008.27
2019-03-01T06:42:51.005Z,1008.26
2019-03-01T06:43:51.065Z,1008.28
2019-03-01T06:44:51.117Z,1008.29
2019-03-01T06:45:51.191Z,1008.27
2019-03-01T06:46:51.249Z,1008.29
2019-03-01T06:47:51.338Z,1008.29
2019-03-01T06:48:51.369Z,1008.31
2019-03-01T06:49:51.429Z,1008.32
2019-03-01T06:50:51.493Z,1008.36
2019-03-01T06:51:51.553Z,1008.36
2019-03-01T06:52:51.624Z,1008.34
2019-03-01T06:53:51.686Z,1008.36
2019-03-01T06:54:51.741Z,1008.39
2019-03-01T06:55:51.805Z,1008.37
2019-03-01T06:56:51.861Z,1008.43
2019-03-01T06:57:51.933Z,1008.39
2019-03-01T06:58:51.994Z,1008.41
2019-03-01T06:59:52.053Z,1008.44
2019-03-01T07:00:52.115Z,1008.45
2019-03-01T07:01:52.174Z,1008.43
2019-03-01T07:02:52.340Z,1008.43
2019-03-01T07:03:52.299Z,1008.42
2019-03-01T07:04:52.362Z,1008.42
2019-03-01T07:05:52.427Z,1008.44
2019-03-01T07:06:52.486Z,1008.44
2019-03-01T07:07:52.557Z,1008.47
2019-03-01T07:08:52.622Z,1008.48
2019-03-01T07:09:52.670Z,1008.52
2019-03-01T07:10:52.734Z,1008.54
2019-03-01T07:11:52.794Z,1008.52
2019-03-01T07:12:52.862Z,1008.55
2019-03-01T07:13:52.943Z,1008.56
2019-03-01T07:14:52.983Z,1008.53
2019-03-01T07:15:53.042Z,1008.55
2019-03-01T07:16:53.103Z,1008.55
2019-03-01T07:17:53.223Z,1008.56
2019-03-01T07:18:53.595Z,1008.54
2019-03-01T07:19:53.443Z,1008.63
2019-03-01T07:20:53.372Z,1008.58
2019-03-01T07:21:53.885Z,1008.62
2019-03-01T07:22:53.603Z,1008.61
2019-03-01T07:23:53.787Z,1008.59
2019-03-01T07:24:53.619Z,1008.61
2019-03-01T07:25:54.923Z,1008.60
2019-03-01T07:26:53.723Z,1008.63
2019-03-01T07:27:53.795Z,1008.65
2019-03-01T07:28:53.855Z,1008.67
2019-03-01T07:29:53.923Z,1008.66
2019-03-01T07:30:53.979Z,1008.70
2019-03-01T07:31:54.035Z,1008.68
2019-03-01T07:32:54.115Z,1008.69
2019-03-01T07:33:54.163Z,1008.70
2019-03-01T07:34:54.219Z,1008.72
2019-03-01T07:35:54.283Z,1008.70
2019-03-01T07:36:54.343Z,1008.71
2019-03-01T07:37:54.416Z,1008.73
2019-03-01T07:38:54.476Z,1008.70
2019-03-01T07:39:54.534Z,1008.72
2019-03-01T07:40:54.592Z,1008.76
2019-03-01T07:41:54.656Z,1008.77
2019-03-01T07:42:54.736Z,1008.76
2019-03-01T07:43:54.788Z,1008.79
2019-03-01T07:44:54.843Z,1008.80
2019-03-01T07:45:54.905Z,1008.85
2019-03-01T07:46:54.964Z,1008.86
2019-03-01T07:47:55.036Z,1008.90
2019-03-01T07:48:55.103Z,1008.91
2019-03-01T07:49:55.154Z,1008.91
2019-03-01T07:50:56.022Z,1008.96
2019-03-01T07:51:55.272Z,1008.95
2019-03-01T07:52:55.349Z,1008.98
2019-03-01T07:53:55.409Z,1009.01
2019-03-01T07:54:55.461Z,1009.02
2019-03-01T07:55:55.521Z,1009.02
2019-03-01T07:56:55.587Z,1009.05
2019-03-01T07:57:55.653Z,1009.06
2019-03-01T07:58:57.483Z,1009.08
2019-03-01T07:59:55.773Z,1009.08
2019-03-01T08:00:55.837Z,1009.11
2019-03-01T08:01:56.070Z,1009.12
2019-03-01T08:02:55.973Z,1009.20
2019-03-01T08:03:56.025Z,1009.16
2019-03-01T08:04:56.089Z,1009.18
2019-03-01T08:05:56.141Z,1009.21
2019-03-01T08:06:56.207Z,1009.20
2019-03-01T08:07:59.712Z,1009.19
2019-03-01T08:08:56.329Z,1009.21
2019-03-01T08:09:56.395Z,1009.21
2019-03-01T08:10:57.342Z,1009.21
2019-03-01T08:11:56.513Z,1009.26
2019-03-01T08:12:56.597Z,1009.25
2019-03-01T08:13:56.646Z,1009.29
2019-03-01T08:14:56.701Z,1009.28
2019-03-01T08:15:56.766Z,1009.26
2019-03-01T08:16:56.886Z,1009.27
2019-03-01T08:17:56.894Z,1009.31
2019-03-01T08:18:56.958Z,1009.34
2019-03-01T08:19:58.664Z,1009.37
2019-03-01T08:20:57.076Z,1009.33
2019-03-01T08:21:57.135Z,1009.45
2019-03-01T08:22:59.839Z,1009.43
2019-03-01T08:23:57.254Z,1009.44
2019-03-01T08:24:57.318Z,1009.45
2019-03-01T08:25:58.823Z,1009.47
2019-03-01T08:26:57.452Z,1009.49
2019-03-01T08:27:57.510Z,1009.48
2019-03-01T08:28:58.570Z,1009.51
2019-03-01T08:29:57.627Z,1009.51
2019-03-01T08:30:57.690Z,1009.53
2019-03-01T08:31:57.754Z,1009.55
2019-03-01T08:32:57.818Z,1009.58
2019-03-01T08:33:57.878Z,1009.60
2019-03-01T08:34:57.943Z,1009.62
2019-03-01T08:35:57.995Z,1009.69
2019-03-01T08:36:58.059Z,1009.63
2019-03-01T08:37:58.171Z,1009.69
2019-03-01T08:39:00.902Z,1009.69
2019-03-01T08:39:58.243Z,1009.68
2019-03-01T08:40:58.307Z,1009.76
2019-03-01T08:42:01.226Z,1009.78
2019-03-01T08:42:58.435Z,1009.76
2019-03-01T08:43:58.504Z,1009.76
2019-03-01T08:44:59.345Z,1009.74
2019-03-01T08:45:58.616Z,1009.77
2019-03-01T08:46:58.675Z,1009.72
2019-03-01T08:47:59.659Z,1009.76
2019-03-01T08:48:58.807Z,1009.81
2019-03-01T08:49:58.863Z,1009.83
2019-03-01T08:50:58.931Z,1009.88
2019-03-01T08:52:01.511Z,1009.84
2019-03-01T08:52:59.055Z,1009.82
2019-03-01T08:54:04.708Z,1009.89
2019-03-01T08:55:03.807Z,1009.90
2019-03-01T08:56:00.790Z,1009.93
2019-03-01T08:56:59.707Z,1009.93
2019-03-01T08:58:02.849Z,1009.94
2019-03-01T08:58:59.429Z,1009.93
2019-03-01T08:59:59.544Z,1010.00
2019-03-01T09:01:00.178Z,1010.01
2019-03-01T09:01:59.604Z,1010.06
2019-03-01T09:02:59.677Z,1010.08
2019-03-01T09:03:59.736Z,1010.07
2019-03-01T09:04:59.795Z,1010.12
2019-03-01T09:05:59.874Z,1010.20
2019-03-01T09:06:59.919Z,1010.10
2019-03-01T09:07:59.984Z,1010.13
2019-03-01T09:09:00.772Z,1010.17
2019-03-01T09:10:00.293Z,1010.19
2019-03-01T09:11:00.166Z,1010.24
2019-03-01T09:12:00.225Z,1010.20
2019-03-01T09:13:00.285Z,1010.24
2019-03-01T09:14:00.494Z,1010.26
2019-03-01T09:15:00.409Z,1010.20
2019-03-01T09:16:00.469Z,1010.29
2019-03-01T09:17:00.630Z,1010.31
2019-03-01T09:18:00.592Z,1010.27
2019-03-01T09:19:00.984Z,1010.27
2019-03-01T09:20:01.208Z,1010.25
2019-03-01T09:21:05.627Z,1010.32
2019-03-01T09:22:00.841Z,1010.35
2019-03-01T09:23:04.974Z,1010.34
2019-03-01T09:24:00.969Z,1010.33
2019-03-01T09:25:02.512Z,1010.37
2019-03-01T09:26:01.089Z,1010.33
2019-03-01T09:27:01.150Z,1010.36
2019-03-01T09:28:01.213Z,1010.35
2019-03-01T09:29:01.302Z,1010.37
2019-03-01T09:30:03.482Z,1010.36
2019-03-01T09:31:01.393Z,1010.43
2019-03-01T09:32:01.458Z,1010.42
2019-03-01T09:33:01.517Z,1010.43
2019-03-01T09:34:01.586Z,1010.41
2019-03-01T09:35:04.294Z,1010.46
2019-03-01T09:36:01.704Z,1010.46
2019-03-01T09:37:01.763Z,1010.47
2019-03-01T09:38:04.574Z,1010.47
2019-03-01T09:39:01.893Z,1010.55
2019-03-01T09:40:05.535Z,1010.54
2019-03-01T09:41:04.660Z,1010.56
2019-03-01T09:42:04.347Z,1010.62
2019-03-01T09:43:02.134Z,1010.63
2019-03-01T09:44:03.101Z,1010.60
2019-03-01T09:45:02.257Z,1010.61
2019-03-01T09:46:02.319Z,1010.62
2019-03-01T09:47:02.604Z,1010.64
2019-03-01T09:48:02.438Z,1010.68
2019-03-01T09:49:02.506Z,1010.72
2019-03-01T09:50:02.572Z,1010.76
2019-03-01T09:51:02.624Z,1010.69
2019-03-01T09:52:02.686Z,1010.73
2019-03-01T09:53:02.747Z,1010.76
2019-03-01T09:54:02.815Z,1010.74
2019-03-01T09:55:02.884Z,1010.79
2019-03-01T09:56:02.932Z,1010.76
2019-03-01T09:57:02.991Z,1010.84
2019-03-01T09:58:03.055Z,1010.79
2019-03-01T09:59:03.139Z,1010.82
2019-03-01T10:00:03.179Z,1010.83
2019-03-01T10:01:03.251Z,1010.85
2019-03-01T10:02:03.300Z,1010.86
2019-03-01T10:03:03.359Z,1010.82
2019-03-01T10:04:03.428Z,1010.87
2019-03-01T10:05:03.492Z,1010.85
2019-03-01T10:06:03.543Z,1010.88
2019-03-01T10:07:03.612Z,1010.91
2019-03-01T10:08:03.667Z,1010.88
2019-03-01T10:09:03.736Z,1010.91
2019-03-01T10:10:03.795Z,1010.89
2019-03-01T10:11:03.851Z,1010.93
2019-03-01T10:12:03.914Z,1010.96
2019-03-01T10:13:03.971Z,1010.95
2019-03-01T10:14:04.044Z,1011.00
2019-03-01T10:15:04.106Z,1011.03
2019-03-01T10:16:04.156Z,1011.02
2019-03-01T10:17:04.220Z,1010.97
2019-03-01T10:18:04.281Z,1011.03
2019-03-01T10:19:04.348Z,1011.06
2019-03-01T10:20:04.408Z,1011.08
2019-03-01T10:21:04.464Z,1011.13
2019-03-01T10:22:04.524Z,1011.16
2019-03-01T10:23:04.589Z,1011.17
2019-03-01T10:24:04.657Z,1011.17
2019-03-01T10:25:04.716Z,1011.14
2019-03-01T10:26:04.770Z,1011.19
2019-03-01T10:27:04.832Z,1011.19
2019-03-01T10:28:04.892Z,1011.19
2019-03-01T10:29:04.960Z,1011.23
2019-03-01T10:30:05.032Z,1011.21
2019-03-01T10:31:05.076Z,1011.23
2019-03-01T10:32:05.136Z,1011.28
2019-03-01T10:33:05.204Z,1011.30
2019-03-01T10:34:05.316Z,1011.26
2019-03-01T10:35:05.404Z,1011.26
2019-03-01T10:36:05.380Z,1011.28
2019-03-01T10:37:05.445Z,1011.30
2019-03-01T10:38:05.508Z,1011.29
2019-03-01T10:39:05.572Z,1011.29
2019-03-01T10:40:05.637Z,1011.32
2019-03-01T10:41:05.714Z,1011.32
2019-03-01T10:42:05.749Z,1011.30
2019-03-01T10:43:05.813Z,1011.27
2019-03-01T10:44:05.884Z,1011.34
2019-03-01T10:45:05.943Z,1011.33
2019-03-01T10:46:05.997Z,1011.34
2019-03-01T10:47:06.066Z,1011.39
2019-03-01T10:48:06.117Z,1011.39
2019-03-01T10:49:06.204Z,1011.43
2019-03-01T10:50:06.241Z,1011.46
2019-03-01T10:51:06.305Z,1011.49
2019-03-01T10:52:06.365Z,1011.47
2019-03-01T10:53:06.440Z,1011.51
2019-03-01T10:54:06.494Z,1011.51
2019-03-01T10:55:06.557Z,1011.52
2019-03-01T10:56:06.618Z,1011.53
2019-03-01T10:57:06.670Z,1011.56
2019-03-01T10:58:06.734Z,1011.59
2019-03-01T10:59:06.821Z,1011.62
2019-03-01T11:00:06.862Z,1011.62
2019-03-01T11:01:06.917Z,1011.67
2019-03-01T11:02:07.002Z,1011.67
2019-03-01T11:03:07.041Z,1011.66
2019-03-01T11:04:07.145Z,1011.64
2019-03-01T11:05:07.162Z,1011.64
2019-03-01T11:06:07.222Z,1011.64
2019-03-01T11:07:07.286Z,1011.62
2019-03-01T11:08:07.346Z,1011.70
2019-03-01T11:09:07.414Z,1011.67
2019-03-01T11:10:07.478Z,1011.65
2019-03-01T11:11:07.530Z,1011.65
2019-03-01T11:12:07.590Z,1011.67
2019-03-01T11:13:07.654Z,1011.69
2019-03-01T11:14:07.730Z,1011.68
2019-03-01T11:15:07.782Z,1011.71
2019-03-01T11:16:07.838Z,1011.70
2019-03-01T11:17:07.900Z,1011.71
2019-03-01T11:18:07.965Z,1011.73
2019-03-01T11:19:08.063Z,1011.73
2019-03-01T11:20:08.107Z,1011.72
2019-03-01T11:21:08.147Z,1011.78
2019-03-01T11:22:08.207Z,1011.76
2019-03-01T11:23:08.327Z,1011.76
2019-03-01T11:24:08.428Z,1011.78
2019-03-01T11:25:08.395Z,1011.72
2019-03-01T11:26:08.454Z,1011.75
2019-03-01T11:27:12.909Z,1011.70
2019-03-01T11:28:10.395Z,1011.71
2019-03-01T11:29:08.648Z,1011.76
2019-03-01T11:30:08.707Z,1011.76
2019-03-01T11:31:08.759Z,1011.73
2019-03-01T11:32:08.819Z,1011.78
2019-03-01T11:33:08.886Z,1011.75
2019-03-01T11:34:08.952Z,1011.70
2019-03-01T11:35:09.015Z,1011.76
2019-03-01T11:36:09.067Z,1011.76
2019-03-01T11:37:09.127Z,1011.74
2019-03-01T11:38:09.207Z,1011.79
2019-03-01T11:39:09.256Z,1011.78
2019-03-01T11:40:09.408Z,1011.80
2019-03-01T11:41:09.377Z,1011.83
2019-03-01T11:42:09.437Z,1011.83
2019-03-01T11:43:09.503Z,1011.84
2019-03-01T11:44:09.556Z,1011.84
2019-03-01T11:45:09.628Z,1011.89
2019-03-01T11:46:09.693Z,1011.88
2019-03-01T11:47:09.744Z,1011.94
2019-03-01T11:48:09.804Z,1011.89
2019-03-01T11:49:09.864Z,1011.87
2019-03-01T11:50:09.946Z,1011.89
2019-03-01T11:51:10.001Z,1011.89
2019-03-01T11:52:10.048Z,1011.91
2019-03-01T11:53:10.112Z,1011.87
2019-03-01T11:54:10.172Z,1011.87
2019-03-01T11:55:10.260Z,1011.88
2019-03-01T11:56:10.296Z,1011.88
2019-03-01T11:57:10.359Z,1011.87
2019-03-01T11:58:10.422Z,1011.92
2019-03-01T11:59:10.485Z,1011.93
2019-03-01T12:00:10.549Z,1011.93
2019-03-01T12:01:17.042Z,1011.96
2019-03-01T12:02:10.665Z,1011.99
2019-03-01T12:03:10.729Z,1012.00
2019-03-01T12:04:10.789Z,1012.00
2019-03-01T12:05:10.861Z,1011.96
2019-03-01T12:06:10.917Z,1011.99